Casper, WY

5:06 AM MDT on August 29, 2014 (GMT -0600)
North of Casper, WY | Change Station
CLOSE
Current Station
Personal Weather Station
Location: Bar Nunn, WY
Elevation: 5276 ft
Nearby Weather Stations

Elev 5276 ft 42.91 °N, 106.35 °W | Updated 57 seconds ago

Partly Cloudy
Partly Cloudy
51.9 °F
Feels Like 51.9 °F
N
0.0
Wind Variable Wind from NNE
Gusts 0.0 mph

Today
High -- | Low -- °F
--% Chance of Precip.
Yesterday
High -- | Low -- °F
Precip. -- in
6:26 AM 7:44 PM
Waxing Crescent, 13% visible
Pressure 29.92 in
Visibility 10.0 miles
Clouds Clear
Dew Point 42 °F
Humidity 68%
Rainfall 0.00 in
Snow Depth 1 in
UV 0 out of 12
Pollen 7.80 out of 12
Air Quality Not available.
Flu Activity Not available.
METAR KCPR 291053Z 23007KT 10SM CLR 11/06 A3009 RMK AO2 SLP130 T01060061

More Conditions Fewer Conditions

Pressure 29.92 in
Visibility 10.0 miles
Clouds Clear
Dew Point 42 °F
Humidity 68%
Rainfall 0.00 in
Snow Depth 1 in
UV 0 out of 12
Pollen 7.80 out of 12
Air Quality Not available.
Flu Activity Not available.
METAR KCPR 291053Z 23007KT 10SM CLR 11/06 A3009 RMK AO2 SLP130 T01060061

More Conditions Fewer Conditions

10-Day Weather Forecast

Almanac

Astronomy

Aug. 29, 2014 Rise Set
Actual Time 6:26 AM MDT 7:44 PM MDT
Civil Twilight 5:57 AM MDT 8:14 PM MDT
Nautical Twilight 5:22 AM MDT 8:49 PM MDT
Astronomical Twilight 4:44 AM MDT 9:26 PM MDT
Moon 10:25 AM MDT 9:37 PM MDT
Length of Visible Light 14h 16m
Length of Day
13h 18m
Tomorrow will be 2m 46s shorter.
Waxing Crescent, 13% of the Moon is Illuminated
Today
Waxing Crescent
Sep 2
First Quarter
Sep 8
Full
Sep 15
Last Quarter
Sep 24
New

Today's Extremes

State Highs State Lows

Community

WunderPhotos

Upload Photos

1,748,211 photos uploaded!

Nearby

Snow Depth

Station Depth Elevation
Casper Mountain 1 in 7850 ft
Reno Hill 0 in 8500 ft
Laprele Creek 0 in 8375 ft
Sand Lake 0 in 10050 ft
Brooklyn Lake 0 in 10220 ft

Earthquake Activity

City Distance Mag. Time & Date
No recent earthquake activity has been reported nearby.
Minimum magnitude displayed is 2.5.

Coastal Water Temperatures

Place Temperature
No Stations Reporting

Nearby Weather Stations